Time;durP1;ratioP1;P1;durP2;ratioP2;P2;SDS_P1;SDS_P2;PMS_P1;PMS_P2;Temp;Humidity;BMP_temperature;BMP_pressure;BME280_temperature;BME280_humidity;BME280_pressure;Samples;Min_cycle;Max_cycle;Signal;HPM_P1;HPM_P2
2022/03/03 00:00:40;;;;;;;24.25;13.65;;;;;;;0.75;95.36;99247.20;1700121;83;20984;-72
2022/03/03 00:03:10;;;;;;;20.15;12.23;;;;;;;0.70;95.47;99240.42;1697218;83;20908;-71
2022/03/03 00:05:37;;;;;;;24.47;13.78;;;;;;;0.65;95.63;99237.67;1688514;83;21010;-73
2022/03/03 00:08:05;;;;;;;22.93;13.38;;;;;;;0.60;95.82;99241.14;1684825;83;21005;-71
2022/03/03 00:10:37;;;;;;;24.57;14.13;;;;;;;0.59;96.24;99240.34;1698791;83;21038;-72
2022/03/03 00:13:04;;;;;;;25.45;14.10;;;;;;;0.60;96.40;99236.55;1694277;83;21081;-72
2022/03/03 00:15:34;;;;;;;23.55;13.30;;;;;;;0.64;96.83;99232.78;1696842;83;21073;-73
2022/03/03 00:18:03;;;;;;;24.70;13.80;;;;;;;0.71;97.09;99232.55;1701803;83;21048;-73
2022/03/03 00:20:33;;;;;;;24.70;13.60;;;;;;;0.74;97.02;99230.66;1705615;84;21487;-72
2022/03/03 00:23:00;;;;;;;25.97;13.90;;;;;;;0.77;97.07;99227.98;1696897;83;21012;-71
2022/03/03 00:25:27;;;;;;;23.10;12.68;;;;;;;0.78;97.08;99228.25;1701210;83;21046;-68
2022/03/03 00:27:58;;;;;;;25.62;13.95;;;;;;;0.80;97.20;99230.17;1694159;83;21265;-72
2022/03/03 00:30:26;;;;;;;24.77;14.58;;;;;;;0.84;97.42;99231.27;1699621;82;20998;-72
2022/03/03 00:32:53;;;;;;;27.32;14.43;;;;;;;0.91;97.53;99229.67;1706141;82;21196;-72
2022/03/03 00:35:22;;;;;;;27.40;14.28;;;;;;;0.96;97.63;99231.06;1697869;82;20974;-71
2022/03/03 00:37:50;;;;;;;30.45;15.83;;;;;;;1.01;97.71;99221.59;1694597;83;21010;-73
2022/03/03 00:40:22;;;;;;;29.40;15.23;;;;;;;1.06;97.65;99219.44;1706192;83;20982;-72
2022/03/03 00:42:52;;;;;;;25.80;14.33;;;;;;;1.02;97.09;99219.70;1706023;83;21578;-74
2022/03/03 00:45:22;;;;;;;26.20;13.83;;;;;;;0.97;96.98;99217.78;1700395;83;21021;-73
2022/03/03 00:47:50;;;;;;;26.07;14.00;;;;;;;0.99;97.22;99224.30;1694364;83;20990;-73
2022/03/03 00:50:17;;;;;;;29.10;15.30;;;;;;;0.96;97.05;99207.99;1701295;82;21097;-70
2022/03/03 00:52:46;;;;;;;26.00;14.25;;;;;;;0.90;96.88;99215.31;1700922;83;20974;-72
2022/03/03 00:55:13;;;;;;;27.87;14.95;;;;;;;0.85;96.89;99216.64;1701007;83;21416;-69
2022/03/03 00:57:42;;;;;;;28.00;15.00;;;;;;;0.85;97.29;99211.21;1706068;82;21017;-72
2022/03/03 01:00:15;;;;;;;25.62;15.58;;;;;;;0.90;97.41;99215.31;1697724;83;20954;-73
2022/03/03 01:02:43;;;;;;;28.45;15.25;;;;;;;0.83;97.10;99200.63;1696296;83;21013;-68
2022/03/03 01:05:12;;;;;;;26.68;14.55;;;;;;;0.84;97.51;99202.25;1699438;83;21997;-73
2022/03/03 01:07:39;;;;;;;27.27;13.95;;;;;;;0.88;97.65;99203.90;1706825;83;21438;-69
2022/03/03 01:10:14;;;;;;;26.27;15.03;;;;;;;0.89;97.61;99195.23;1705582;83;21006;-71
2022/03/03 01:12:43;;;;;;;26.80;14.18;;;;;;;0.91;97.77;99200.66;1694121;83;20938;-72
2022/03/03 01:15:11;;;;;;;26.68;14.78;;;;;;;0.94;97.67;99197.94;1696902;83;21440;-71
2022/03/03 01:17:39;;;;;;;30.92;15.70;;;;;;;0.97;97.75;99200.15;1683554;84;21187;-73
2022/03/03 01:20:09;;;;;;;28.90;15.40;;;;;;;0.97;97.57;99200.15;1696480;83;21070;-70
2022/03/03 01:22:37;;;;;;;28.07;15.65;;;;;;;0.94;97.52;99200.66;1690524;83;21485;-69
2022/03/03 01:25:09;;;;;;;28.57;15.32;;;;;;;0.95;97.64;99199.59;1689860;83;21052;-70
2022/03/03 01:27:36;;;;;;;29.60;15.13;;;;;;;0.94;97.63;99202.83;1684971;84;21118;-72
2022/03/03 01:30:08;;;;;;;29.57;14.85;;;;;;;0.93;97.57;99201.74;1689563;83;21857;-72
2022/03/03 01:32:36;;;;;;;30.40;15.20;;;;;;;0.94;97.79;99201.48;1696467;84;21125;-72
2022/03/03 01:35:05;;;;;;;26.75;14.83;;;;;;;0.96;97.79;99195.25;1692253;84;21543;-70
2022/03/03 01:37:32;;;;;;;25.52;14.18;;;;;;;0.95;97.55;99197.70;1693438;83;21121;-73
2022/03/03 01:40:01;;;;;;;25.10;14.03;;;;;;;0.96;97.67;99200.68;1691121;84;21030;-70
2022/03/03 01:42:30;;;;;;;24.55;13.10;;;;;;;1.00;97.81;99196.08;1667615;84;21148;-72
2022/03/03 01:45:01;;;;;;;30.45;15.68;;;;;;;0.96;97.50;99190.36;1689026;84;20987;-71
2022/03/03 01:47:32;;;;;;;27.80;14.85;;;;;;;0.93;97.54;99186.29;1696610;84;21487;-71
2022/03/03 01:50:00;;;;;;;29.10;15.30;;;;;;;0.94;97.74;99187.91;1679003;83;21670;-71
2022/03/03 01:52:28;;;;;;;23.75;12.88;;;;;;;0.98;97.92;99182.78;1703438;83;21046;-72
2022/03/03 01:54:57;;;;;;;25.25;14.28;;;;;;;0.99;97.87;99186.31;1724534;82;20995;-73
2022/03/03 01:57:26;;;;;;;31.75;14.85;;;;;;;1.04;97.99;99191.20;1703675;82;20997;-73
2022/03/03 01:59:52;;;;;;;27.40;15.32;;;;;;;1.07;97.99;99187.16;1713497;82;20935;-70
2022/03/03 02:02:21;;;;;;;26.20;14.43;;;;;;;1.04;97.48;99182.27;1691102;82;21506;-70
2022/03/03 02:04:48;;;;;;;22.32;12.65;;;;;;;0.93;97.10;99184.94;1723655;83;20950;-72
2022/03/03 02:07:16;;;;;;;22.20;13.00;;;;;;;0.90;97.49;99181.39;1725758;83;21068;-71
2022/03/03 02:09:45;;;;;;;26.07;14.00;;;;;;;0.91;97.60;99180.83;1724254;82;21022;-69
2022/03/03 02:12:13;;;;;;;25.15;13.18;;;;;;;0.90;97.57;99181.39;1722084;82;21588;-69
2022/03/03 02:14:48;;;;;;;28.67;14.87;;;;;;;0.91;97.69;99179.48;1723745;82;20899;-71
2022/03/03 02:17:17;;;;;;;26.70;15.10;;;;;;;0.90;97.48;99176.50;1724694;82;21517;-71
2022/03/03 02:19:46;;;;;;;29.32;13.72;;;;;;;0.84;97.23;99176.47;1725207;82;21133;-72
2022/03/03 02:22:13;;;;;;;29.40;14.20;;;;;;;0.78;97.28;99171.28;1724601;83;21499;-69
2022/03/03 02:24:43;;;;;;;30.82;15.25;;;;;;;0.80;97.66;99165.86;1722465;82;20966;-72
2022/03/03 02:27:13;;;;;;;24.40;14.07;;;;;;;0.82;97.75;99166.42;1676997;83;21089;-73
2022/03/03 02:29:42;;;;;;;26.57;14.73;;;;;;;0.81;97.61;99165.33;1724092;82;21086;-73
2022/03/03 02:32:15;;;;;;;26.73;14.38;;;;;;;0.83;97.85;99162.64;1717398;83;21030;-70
2022/03/03 02:34:48;;;;;;;26.10;13.75;;;;;;;0.87;97.98;99156.13;1718889;82;21015;-72
2022/03/03 02:37:16;;;;;;;25.65;13.50;;;;;;;0.91;98.04;99156.41;1722158;82;21139;-70
2022/03/03 02:39:44;;;;;;;33.58;15.95;;;;;;;0.88;97.67;99159.66;1724861;82;21071;-72
2022/03/03 02:42:11;;;;;;;26.80;15.20;;;;;;;0.85;97.85;99152.31;1725652;82;20952;-69
2022/03/03 02:44:38;;;;;;;24.15;13.65;;;;;;;0.90;98.08;99149.37;1722909;82;21121;-73
2022/03/03 02:47:09;;;;;;;24.87;13.78;;;;;;;0.93;98.14;99148.30;1723691;82;21009;-72
2022/03/03 02:49:36;;;;;;;27.37;14.25;;;;;;;0.98;98.05;99143.43;1721684;82;20978;-72
2022/03/03 02:52:07;;;;;;;24.77;14.03;;;;;;;0.97;98.05;99140.45;1721776;82;21058;-73
2022/03/03 02:54:34;;;;;;;24.27;13.95;;;;;;;0.99;98.14;99138.83;1722728;82;21116;-74
2022/03/03 02:59:50;;;;;;;24.10;13.60;;;;;;;1.05;98.06;99134.52;1724643;82;21114;-71
2022/03/03 03:02:18;;;;;;;26.48;14.20;;;;;;;1.07;97.89;99138.31;1717801;82;21026;-71
2022/03/03 03:04:49;;;;;;;25.80;13.93;;;;;;;1.05;97.68;99135.04;1719364;82;20991;-72
2022/03/03 03:07:17;;;;;;;22.27;12.80;;;;;;;1.03;97.66;99131.23;1712401;83;21139;-72
2022/03/03 03:09:44;;;;;;;24.63;13.60;;;;;;;1.04;97.77;99131.50;1714798;82;21108;-72
2022/03/03 03:12:13;;;;;;;24.07;13.55;;;;;;;1.02;97.65;99119.30;1718123;82;20990;-72
2022/03/03 03:14:41;;;;;;;28.30;14.93;;;;;;;1.03;97.70;99123.63;1722853;82;20947;-71
2022/03/03 03:17:10;;;;;;;29.07;14.10;;;;;;;1.02;97.54;99116.05;1721382;81;21229;-72
2022/03/03 03:19:44;;;;;;;25.68;13.83;;;;;;;1.01;97.52;99119.03;1726747;82;20990;-69
2022/03/03 03:22:12;;;;;;;25.65;14.23;;;;;;;1.04;97.58;99113.06;1721574;82;21144;-69
2022/03/03 03:28:02;;;;;;;24.82;13.53;;;;;;;0.87;96.69;99107.28;1724860;82;21047;-69
2022/03/03 03:30:31;;;;;;;25.77;14.30;;;;;;;0.72;96.94;99100.73;1716848;82;20955;-69
2022/03/03 03:33:00;;;;;;;27.67;14.83;;;;;;;0.70;97.18;99103.45;1711936;82;21443;-70
2022/03/03 03:35:31;;;;;;;25.75;13.62;;;;;;;0.64;97.14;99106.66;1715267;82;21770;-69
2022/03/03 03:37:59;;;;;;;28.45;15.25;;;;;;;0.62;97.46;99093.08;1734588;82;21215;-71
2022/03/03 03:40:29;;;;;;;27.13;13.22;;;;;;;0.63;97.63;99091.48;1723870;82;21605;-69
2022/03/03 03:42:56;;;;;;;28.83;14.50;;;;;;;0.63;97.66;99091.48;1728591;82;21018;-70
2022/03/03 03:45:24;;;;;;;23.47;12.90;;;;;;;0.66;98.00;99095.55;1735734;82;21574;-72
2022/03/03 03:47:55;;;;;;;25.40;13.00;;;;;;;0.65;97.81;99089.86;1734576;82;21489;-71
2022/03/03 03:50:25;;;;;;;25.45;14.20;;;;;;;0.65;97.97;99094.72;1729238;82;21606;-72
2022/03/03 03:52:52;;;;;;;25.30;13.32;;;;;;;0.70;98.27;99087.17;1727992;82;20942;-71
2022/03/03 03:55:19;;;;;;;24.02;13.95;;;;;;;0.74;98.47;99081.48;1725127;82;20959;-72
2022/03/03 03:57:48;;;;;;;22.45;12.28;;;;;;;0.80;98.40;99089.11;1737229;81;20951;-70
2022/03/03 04:00:17;;;;;;;26.30;13.85;;;;;;;0.78;98.31;99080.41;1725772;82;21427;-71
2022/03/03 04:02:45;;;;;;;24.47;13.18;;;;;;;0.79;98.19;99082.86;1723225;82;21165;-71
2022/03/03 04:05:15;;;;;;;30.52;14.50;;;;;;;0.76;98.04;99075.78;1732636;82;21138;-70
2022/03/03 04:07:44;;;;;;;27.95;14.05;;;;;;;0.72;97.94;99070.89;1730209;81;20975;-69
2022/03/03 04:10:11;;;;;;;21.97;12.53;;;;;;;0.66;97.70;99069.25;1729376;82;20951;-71
2022/03/03 04:12:40;;;;;;;23.32;12.15;;;;;;;0.60;97.71;99071.65;1728921;82;21954;-74
2022/03/03 04:15:08;;;;;;;21.17;11.68;;;;;;;0.56;97.70;99070.56;1727421;81;20970;-73
2022/03/03 04:17:36;;;;;;;20.75;11.65;;;;;;;0.48;97.79;99067.27;1723844;82;21054;-71
2022/03/03 04:20:11;;;;;;;20.12;10.60;;;;;;;0.45;98.11;99071.87;1728988;82;21491;-73
2022/03/03 04:22:39;;;;;;;24.87;12.45;;;;;;;0.43;98.14;99068.59;1728550;82;21018;-71
2022/03/03 04:25:08;;;;;;;18.98;10.15;;;;;;;0.36;98.14;99065.30;1732671;82;21583;-70
2022/03/03 04:27:37;;;;;;;22.95;11.78;;;;;;;0.36;98.50;99063.94;1731766;82;21483;-70
2022/03/03 04:30:11;;;;;;;18.98;9.98;;;;;;;0.41;98.87;99072.10;1730361;82;20938;-71
2022/03/03 04:32:40;;;;;;;19.23;10.63;;;;;;;0.46;99.02;99063.20;1732100;81;21045;-73
2022/03/03 04:35:08;;;;;;;19.27;10.40;;;;;;;0.51;99.10;99061.05;1729866;82;21463;-72
2022/03/03 04:37:38;;;;;;;19.30;10.78;;;;;;;0.51;98.96;99070.00;1731227;82;21755;-72
2022/03/03 04:40:10;;;;;;;20.75;10.58;;;;;;;0.46;98.69;99064.00;1731560;82;21053;-73
2022/03/03 04:42:39;;;;;;;18.52;10.13;;;;;;;0.43;98.72;99071.31;1732254;82;21460;-70
2022/03/03 04:45:07;;;;;;;19.62;10.38;;;;;;;0.41;98.84;99067.24;1718576;81;21012;-71
2022/03/03 04:47:36;;;;;;;17.82;9.00;;;;;;;0.46;99.31;99063.20;1724462;82;21044;-72
2022/03/03 04:50:04;;;;;;;19.35;9.65;;;;;;;0.51;99.43;99063.76;1720602;81;21117;-73
2022/03/03 04:52:34;;;;;;;16.80;10.05;;;;;;;0.56;99.47;99067.85;1734927;82;21578;-70
2022/03/03 04:55:04;;;;;;;17.75;10.35;;;;;;;0.56;99.38;99064.58;1732595;82;20986;-69
2022/03/03 04:57:32;;;;;;;16.67;9.13;;;;;;;0.60;99.41;99061.63;1735965;82;20943;-70
2022/03/03 04:59:58;;;;;;;19.37;10.00;;;;;;;0.62;99.52;99058.65;1708787;82;21030;-71
2022/03/03 05:02:27;;;;;;;16.90;9.48;;;;;;;0.63;99.21;99054.88;1726908;80;21077;-72
2022/03/03 05:04:56;;;;;;;16.40;8.83;;;;;;;0.54;98.81;99060.52;1732000;81;21029;-73
2022/03/03 05:07:23;;;;;;;20.43;11.48;;;;;;;0.47;98.83;99062.94;1727202;82;20955;-73
2022/03/03 05:09:51;;;;;;;15.15;8.90;;;;;;;0.46;99.12;99058.58;1728786;82;21073;-70
2022/03/03 05:12:18;;;;;;;16.10;9.45;;;;;;;0.43;98.92;99050.15;1726990;82;21057;-73
2022/03/03 05:14:49;;;;;;;15.78;9.18;;;;;;;0.40;99.17;99058.28;1733180;82;20967;-68
2022/03/03 05:17:16;;;;;;;17.25;9.85;;;;;;;0.41;99.19;99053.69;1733454;82;21120;-70
2022/03/03 05:19:47;;;;;;;17.62;10.43;;;;;;;0.43;99.35;99055.04;1707999;82;20993;-72
2022/03/03 05:22:18;;;;;;;18.43;9.60;;;;;;;0.46;99.50;99057.22;1708386;82;21014;-72
2022/03/03 05:24:50;;;;;;;21.02;10.60;;;;;;;0.50;99.37;99057.52;1734448;82;21565;-70
2022/03/03 05:27:19;;;;;;;17.25;9.78;;;;;;;0.45;99.39;99055.60;1726956;82;21066;-73
2022/03/03 05:29:49;;;;;;;16.15;9.30;;;;;;;0.51;99.64;99054.27;1725178;81;20930;-71
2022/03/03 05:32:16;;;;;;;21.15;10.35;;;;;;;0.51;99.54;99049.67;1738774;82;21053;-73
2022/03/03 05:34:43;;;;;;;18.92;9.73;;;;;;;0.48;99.30;99051.00;1708120;81;21008;-72
2022/03/03 05:37:11;;;;;;;18.48;10.25;;;;;;;0.43;99.16;99051.50;1731817;82;20946;-72
2022/03/03 05:39:38;;;;;;;21.82;10.35;;;;;;;0.37;99.29;99049.33;1735861;81;21152;-70
2022/03/03 05:42:07;;;;;;;20.27;10.50;;;;;;;0.32;99.27;99051.48;1720030;81;21593;-71
2022/03/03 05:44:34;;;;;;;18.85;9.88;;;;;;;0.31;99.42;99055.78;1726294;81;20988;-68
2022/03/03 05:47:03;;;;;;;19.15;8.95;;;;;;;0.24;99.29;99052.78;1725149;81;21057;-71
2022/03/03 05:52:59;;;;;;;18.17;9.78;;;;;;;0.18;99.83;99051.13;1738066;81;20866;-69
2022/03/03 05:55:24;;;;;;;17.05;9.15;;;;;;;0.21;100.00;99047.89;1736901;82;21487;-72
2022/03/03 05:57:57;;;;;;;16.95;9.20;;;;;;;0.21;100.00;99047.89;1738186;82;20954;-72
2022/03/03 06:00:26;;;;;;;17.42;9.58;;;;;;;0.22;100.00;99043.30;1717750;81;21519;-72
2022/03/03 06:02:55;;;;;;;16.93;8.60;;;;;;;0.22;100.00;99052.22;1731627;82;20947;-73
2022/03/03 06:05:25;;;;;;;15.80;8.78;;;;;;;0.22;100.00;99056.28;1733261;82;21842;-73
2022/03/03 06:07:58;;;;;;;16.70;9.15;;;;;;;0.23;100.00;99047.63;1736218;82;21431;-70
2022/03/03 06:10:25;;;;;;;19.27;10.18;;;;;;;0.25;100.00;99052.25;1724838;81;21089;-72
2022/03/03 06:12:58;;;;;;;19.20;10.32;;;;;;;0.29;100.00;99051.19;1735967;82;22484;-73
2022/03/03 06:15:25;;;;;;;18.10;8.88;;;;;;;0.33;100.00;99047.68;1724461;82;21010;-69
2022/03/03 06:17:55;;;;;;;17.82;9.78;;;;;;;0.35;100.00;99042.81;1730702;82;20978;-72
2022/03/03 06:20:27;;;;;;;15.13;8.65;;;;;;;0.33;100.00;99044.14;1733104;82;20969;-72
2022/03/03 06:22:56;;;;;;;16.42;9.78;;;;;;;0.33;100.00;99044.97;1731135;82;20949;-73
2022/03/03 06:25:25;;;;;;;15.43;8.60;;;;;;;0.33;100.00;99042.26;1733769;82;20954;-73
2022/03/03 06:27:55;;;;;;;15.83;8.70;;;;;;;0.33;100.00;99040.91;1735432;81;20879;-70
2022/03/03 06:30:28;;;;;;;13.32;8.13;;;;;;;0.34;100.00;99046.59;1727429;82;21142;-68
2022/03/03 06:33:02;;;;;;;15.32;8.75;;;;;;;0.36;100.00;99042.25;1735986;81;20950;-72
2022/03/03 06:35:36;;;;;;;;;;;;;;;0.38;100.00;99044.70;1739374;82;22266;-72
2022/03/03 06:38:05;;;;;;;;;;;;;;;0.37;100.00;99042.55;1728870;82;20083;-74
2022/03/03 06:40:34;;;;;;;14.00;8.13;;;;;;;0.40;100.00;99037.95;1734271;82;20166;-73
2022/03/03 06:43:01;;;;;;;13.90;7.85;;;;;;;0.45;100.00;99035.27;1731729;80;21903;-73
2022/03/03 06:45:30;;;;;;;14.45;7.30;;;;;;;0.54;100.00;99039.64;1720891;82;20994;-73
2022/03/03 06:48:00;;;;;;;10.53;7.08;;;;;;;0.55;100.00;99039.91;1728247;82;20918;-72
2022/03/03 06:50:28;;;;;;;16.55;8.58;;;;;;;0.57;100.00;99036.40;1725203;82;20934;-73
2022/03/03 06:53:00;;;;;;;13.72;7.80;;;;;;;0.58;100.00;99028.53;1729045;82;21053;-70
2022/03/03 06:55:27;;;;;;;12.37;7.55;;;;;;;0.61;100.00;99032.63;1738698;82;21090;-70
2022/03/03 06:57:56;;;;;;;12.58;7.30;;;;;;;0.63;100.00;99031.82;1736160;82;21408;-73
2022/03/03 07:00:32;;;;;;;11.45;7.12;;;;;;;0.69;100.00;99038.88;1724239;82;21076;-74
2022/03/03 07:03:02;;;;;;;10.43;6.25;;;;;;;0.77;100.00;99023.98;1728796;81;20962;-72
2022/03/03 07:05:34;;;;;;;13.25;7.25;;;;;;;0.89;100.00;99031.09;1734167;82;20887;-73
2022/03/03 07:08:02;;;;;;;13.58;8.03;;;;;;;0.92;100.00;99028.62;1698090;82;21522;-73
2022/03/03 07:10:33;;;;;;;13.13;7.75;;;;;;;0.90;100.00;99033.53;1735286;82;21069;-71
2022/03/03 07:13:06;;;;;;;13.35;7.47;;;;;;;0.88;100.00;99032.97;1697107;82;21011;-74
2022/03/03 07:15:35;;;;;;;10.88;7.28;;;;;;;0.79;99.93;99037.27;1680660;82;21475;-71
2022/03/03 07:18:08;;;;;;;13.53;8.18;;;;;;;0.80;100.00;99040.28;1702044;82;20994;-71
2022/03/03 07:20:59;;;;;;;11.00;7.05;;;;;;;0.83;100.00;99031.06;1672598;83;21549;-74
2022/03/03 07:23:40;;;;;;;12.47;7.70;;;;;;;0.92;100.00;99033.26;1723165;82;21061;-71
2022/03/03 07:26:11;;;;;;;11.35;7.40;;;;;;;0.95;100.00;99034.07;1708974;82;21538;-71
2022/03/03 07:28:40;;;;;;;14.65;8.85;;;;;;;0.93;100.00;99031.63;1735697;82;21024;-73
2022/03/03 07:31:07;;;;;;;13.90;8.68;;;;;;;0.93;99.87;99030.80;1710749;82;21569;-73
2022/03/03 07:33:56;;;;;;;15.78;9.65;;;;;;;0.89;99.76;99035.95;1730921;81;21959;-73
2022/03/03 07:36:32;;;;;;;12.88;7.55;;;;;;;0.88;99.59;99030.26;1735814;82;20946;-70
2022/03/03 07:39:04;;;;;;;13.18;8.65;;;;;;;0.84;99.51;99033.22;1731970;82;21024;-72
2022/03/03 07:41:32;;;;;;;11.93;7.50;;;;;;;0.85;99.69;99030.80;1701073;82;21001;-73
2022/03/03 07:44:00;;;;;;;11.57;7.00;;;;;;;0.87;99.57;99027.25;1734603;82;21007;-70
2022/03/03 07:46:31;;;;;;;13.13;8.18;;;;;;;0.81;99.25;99026.45;1727180;82;21556;-71
2022/03/03 07:48:59;;;;;;;12.35;8.25;;;;;;;0.81;99.30;99016.95;1723804;81;21017;-73
2022/03/03 07:51:28;;;;;;;15.18;9.43;;;;;;;0.76;99.09;99018.82;1735857;82;21447;-71
2022/03/03 07:53:57;;;;;;;14.25;7.87;;;;;;;0.77;99.22;99023.19;1731245;82;21041;-72
2022/03/03 07:56:27;;;;;;;11.78;6.90;;;;;;;0.72;99.53;99018.00;1705845;82;20934;-71
2022/03/03 07:59:03;;;;;;;12.18;8.10;;;;;;;0.68;99.66;99023.67;1731216;82;21093;-73
2022/03/03 08:01:31;;;;;;;10.75;7.33;;;;;;;0.69;100.00;99026.67;1729358;81;21549;-70
2022/03/03 08:04:01;;;;;;;12.70;7.70;;;;;;;0.73;99.60;99018.83;1720827;82;21026;-69
2022/03/03 08:06:32;;;;;;;12.35;7.95;;;;;;;0.78;99.84;99022.91;1726750;82;20971;-72
2022/03/03 08:09:00;;;;;;;12.25;6.87;;;;;;;0.81;99.62;99023.73;1735443;82;21403;-68
2022/03/03 08:11:33;;;;;;;11.03;6.87;;;;;;;0.77;99.27;99013.13;1717495;82;21708;-73
2022/03/03 08:14:02;;;;;;;10.85;6.35;;;;;;;0.73;99.22;99018.27;1668678;82;20992;-73
2022/03/03 08:16:29;;;;;;;10.28;6.65;;;;;;;0.71;99.21;99020.45;1737747;82;21063;-69
2022/03/03 08:18:58;;;;;;;10.65;6.65;;;;;;;0.75;99.52;99010.42;1721256;82;21514;-70
2022/03/03 08:21:26;;;;;;;10.23;6.53;;;;;;;0.80;99.83;99017.22;1722185;82;21065;-73
2022/03/03 08:23:58;;;;;;;11.65;7.03;;;;;;;0.80;99.60;99013.15;1727187;82;20887;-71
2022/03/03 08:26:25;;;;;;;9.50;6.47;;;;;;;0.73;99.55;99016.91;1673125;81;20976;-73
2022/03/03 08:28:57;;;;;;;10.30;6.25;;;;;;;0.66;99.59;99009.59;1707039;82;21085;-72
2022/03/03 08:31:28;;;;;;;9.23;6.25;;;;;;;0.64;99.44;99014.45;1699420;82;21549;-73
2022/03/03 08:34:06;;;;;;;11.38;6.92;;;;;;;0.66;99.57;99012.30;1731465;82;20958;-75
2022/03/03 08:36:44;;;;;;;13.50;8.58;;;;;;;0.68;99.37;99017.45;1730550;82;21243;-74
2022/03/03 08:39:10;;;;;;;12.03;7.67;;;;;;;0.67;99.45;99015.27;1696675;82;21018;-74
2022/03/03 08:41:41;;;;;;;14.43;9.00;;;;;;;0.72;99.61;99012.58;1730920;82;20978;-73
2022/03/03 08:44:10;;;;;;;12.70;7.97;;;;;;;0.73;99.47;99007.41;1704178;82;21002;-72
2022/03/03 08:46:41;;;;;;;12.23;7.47;;;;;;;0.77;99.38;99001.48;1708541;82;21556;-74
2022/03/03 08:49:12;;;;;;;11.88;7.28;;;;;;;0.75;99.17;99005.00;1725835;81;21063;-73
2022/03/03 08:51:47;;;;;;;10.63;6.85;;;;;;;0.71;99.17;98999.28;1734036;82;20927;-73
2022/03/03 08:54:14;;;;;;;;;;;;;;;0.71;99.44;99006.06;1735249;82;21011;-74
2022/03/03 08:56:41;;;;;;;15.00;7.28;;;;;;;0.75;99.47;99001.72;1732574;82;20147;-72
2022/03/03 08:59:10;;;;;;;10.65;6.40;;;;;;;0.78;99.48;99003.10;1734899;82;21042;-72
2022/03/03 09:01:41;;;;;;;10.25;6.20;;;;;;;0.86;99.74;99009.36;1735301;82;21154;-73
2022/03/03 09:04:13;;;;;;;9.63;5.75;;;;;;;0.89;99.42;99012.09;1702320;82;21042;-71
2022/03/03 09:06:40;;;;;;;9.88;6.33;;;;;;;0.92;99.38;99005.56;1708045;82;21006;-74
2022/03/03 09:09:09;;;;;;;10.80;6.92;;;;;;;0.95;99.50;99005.05;1724330;82;21519;-72
2022/03/03 09:11:38;;;;;;;13.05;7.15;;;;;;;1.01;99.03;99004.50;1710715;82;21088;-75
2022/03/03 09:14:11;;;;;;;10.70;7.17;;;;;;;1.03;98.98;99005.05;1721234;81;21094;-72
2022/03/03 09:16:39;;;;;;;10.68;7.35;;;;;;;1.11;99.25;99004.25;1699070;82;21150;-73
2022/03/03 09:19:07;;;;;;;11.63;6.83;;;;;;;1.23;99.31;99004.00;1733689;82;21093;-71
2022/03/03 09:21:34;;;;;;;11.45;7.40;;;;;;;1.32;99.04;99009.14;1721745;82;21610;-74
2022/03/03 09:24:06;;;;;;;11.90;6.85;;;;;;;1.30;98.36;99008.06;1729776;81;21072;-73
2022/03/03 09:26:34;;;;;;;10.58;7.35;;;;;;;1.34;98.45;99012.41;1700245;82;21763;-74
2022/03/03 09:29:02;;;;;;;11.90;6.45;;;;;;;1.43;98.76;99008.62;1727159;82;20989;-71
2022/03/03 09:31:35;;;;;;;10.98;7.35;;;;;;;1.49;98.46;99008.88;1727839;82;20995;-73
2022/03/03 09:34:06;;;;;;;9.93;7.28;;;;;;;1.56;98.28;99011.31;1736305;82;21164;-72
2022/03/03 09:36:36;;;;;;;10.85;7.12;;;;;;;1.54;97.45;99015.67;1733064;82;21236;-72
2022/03/03 09:39:13;;;;;;;10.60;6.47;;;;;;;1.53;97.10;99010.52;1735128;82;21148;-73
2022/03/03 09:41:50;;;;;;;10.82;7.30;;;;;;;1.43;96.42;99010.77;1728197;82;20990;-74
2022/03/03 09:44:23;;;;;;;8.93;5.62;;;;;;;1.32;96.67;99005.08;1701755;82;21027;-71
2022/03/03 09:46:57;;;;;;;9.70;6.53;;;;;;;1.33;97.06;98995.86;1721014;81;21017;-74
2022/03/03 09:49:32;;;;;;;10.32;6.58;;;;;;;1.43;97.50;98999.11;1722680;82;21351;-72
2022/03/03 09:52:01;;;;;;;10.43;6.37;;;;;;;1.51;97.33;98995.84;1737941;82;21140;-74
2022/03/03 09:54:35;;;;;;;10.45;6.55;;;;;;;1.55;97.05;98992.84;1698514;81;21201;-72
2022/03/03 09:57:05;;;;;;;12.73;7.42;;;;;;;1.59;97.00;98993.11;1695644;82;21570;-69
2022/03/03 10:05:56;;;;;;;9.48;6.47;;;;;;;1.55;96.86;98987.41;1733059;82;21515;-71
2022/03/03 10:08:29;;;;;;;11.60;7.62;;;;;;;1.62;96.67;98979.55;1724433;81;20949;-71
2022/03/03 10:11:04;;;;;;;9.78;6.58;;;;;;;1.50;95.88;98983.34;1702482;82;21513;-72
2022/03/03 10:13:51;;;;;;;10.98;7.30;;;;;;;1.44;95.84;98982.55;1722115;82;21013;-74
2022/03/03 10:16:24;;;;;;;12.33;7.30;;;;;;;1.42;96.04;98976.56;1722530;82;21136;-73
2022/03/03 10:19:02;;;;;;;12.00;7.53;;;;;;;1.39;96.06;98983.91;1707495;82;21785;-70
2022/03/03 10:21:37;;;;;;;11.90;7.62;;;;;;;1.39;95.94;98985.80;1719875;82;20974;-74
2022/03/03 10:24:24;;;;;;;12.18;8.38;;;;;;;1.31;96.60;98977.66;1714336;82;21014;-73
2022/03/03 10:27:07;;;;;;;13.75;8.68;;;;;;;1.30;96.83;98982.80;1719920;82;21021;-70
2022/03/03 10:29:42;;;;;;;;;;;;;;;1.30;97.28;98979.55;1717361;82;21109;-73
2022/03/03 10:32:10;;;;;;;12.30;8.15;;;;;;;1.41;98.03;98973.59;1717624;82;21322;-74
2022/03/03 10:34:43;;;;;;;9.48;5.90;;;;;;;1.49;97.85;98979.00;1641526;82;21057;-74
2022/03/03 10:37:11;;;;;;;10.28;6.55;;;;;;;1.54;98.01;98975.47;1721147;82;21499;-71
2022/03/03 10:39:49;;;;;;;15.80;8.35;;;;;;;1.64;98.40;98973.30;1724598;82;21584;-71
2022/03/03 10:42:29;;;;;;;11.73;7.83;;;;;;;1.74;98.35;98974.62;1713570;82;21077;-74
2022/03/03 10:45:16;;;;;;;13.88;8.50;;;;;;;1.75;97.73;98972.73;1727726;82;21050;-74
2022/03/03 10:48:01;;;;;;;10.78;6.85;;;;;;;1.61;97.21;98974.65;1734556;82;21086;-74
2022/03/03 10:50:50;;;;;;;10.85;7.37;;;;;;;1.39;97.86;98964.90;1699547;82;21022;-75
2022/03/03 10:53:23;;;;;;;11.33;7.53;;;;;;;1.36;98.58;98964.09;1701551;82;21065;-70
2022/03/03 10:56:05;;;;;;;14.80;7.30;;;;;;;1.31;98.17;98955.95;1681391;82;20978;-74
2022/03/03 10:58:57;;;;;;;12.03;8.05;;;;;;;1.26;98.64;98962.73;1707693;82;21549;-73
2022/03/03 11:01:30;;;;;;;11.75;7.70;;;;;;;1.24;98.17;98960.29;1733781;82;21066;-74
2022/03/03 11:04:01;;;;;;;13.10;7.97;;;;;;;1.19;98.10;98960.29;1706737;82;21526;-72
2022/03/03 11:06:30;;;;;;;11.75;7.53;;;;;;;1.17;98.75;98951.06;1729195;82;21014;-69
2022/03/03 11:09:00;;;;;;;14.85;8.35;;;;;;;1.23;98.74;98952.42;1730309;82;21042;-72
2022/03/03 11:11:38;;;;;;;10.58;6.90;;;;;;;1.28;98.10;98955.14;1727761;82;21150;-74
2022/03/03 11:14:11;;;;;;;10.68;7.45;;;;;;;1.34;97.97;98956.75;1728240;82;20945;-74
2022/03/03 11:16:45;;;;;;;9.98;6.60;;;;;;;1.40;97.67;98948.86;1725414;81;21005;-74
2022/03/03 11:19:12;;;;;;;10.78;8.13;;;;;;;1.39;97.10;98949.14;1697265;83;21024;-71
2022/03/03 11:21:41;;;;;;;10.13;6.72;;;;;;;1.40;96.99;98947.51;1725869;82;20930;-71
2022/03/03 11:24:19;;;;;;;10.60;6.87;;;;;;;1.48;97.22;98943.98;1721309;81;21044;-73
2022/03/03 11:26:48;;;;;;;10.80;7.10;;;;;;;1.50;96.55;98942.60;1708783;82;20957;-70
2022/03/03 11:29:17;;;;;;;12.00;7.15;;;;;;;1.56;96.73;98944.24;1726543;82;21039;-73
2022/03/03 11:32:03;;;;;;;9.37;6.47;;;;;;;1.62;96.26;98944.23;1726693;82;21014;-69
2022/03/03 11:34:38;;;;;;;10.00;7.20;;;;;;;1.58;95.15;98935.28;1731140;82;21135;-73
2022/03/03 11:37:21;;;;;;;11.45;7.25;;;;;;;1.52;94.89;98937.72;1722534;80;20930;-74
2022/03/03 11:42:37;;;;;;;9.80;6.42;;;;;;;1.53;94.93;98935.30;1728200;82;21435;-72
2022/03/03 11:45:15;;;;;;;12.73;8.10;;;;;;;1.55;95.04;98938.52;1736002;81;21736;-72
2022/03/03 11:47:47;;;;;;;12.47;8.08;;;;;;;1.64;95.36;98934.71;1736494;81;21162;-74
2022/03/03 11:50:25;;;;;;;11.35;7.42;;;;;;;1.70;94.97;98934.99;1734099;82;20990;-74
2022/03/03 11:53:07;;;;;;;9.10;6.45;;;;;;;1.69;94.44;98928.45;1676896;83;21590;-73
2022/03/03 11:55:59;;;;;;;13.65;6.97;;;;;;;1.71;94.62;98931.71;1730254;82;21144;-73
2022/03/03 11:58:34;;;;;;;10.18;6.65;;;;;;;1.80;94.77;98937.40;1728889;82;21013;-71
2022/03/03 12:01:14;;;;;;;11.83;7.10;;;;;;;1.88;94.70;98934.11;1729037;82;21088;-69
2022/03/03 12:04:04;;;;;;;12.82;8.45;;;;;;;1.88;93.79;98936.83;1724668;82;21324;-70